Terminal Aerodrome Forecast
Issued by NWS Wilmington, NC

Current Version | Previous Version | Text Only | Print | Product List | Glossary On
Versions: 1 2 3 4 5 6 7 8 9 10 11 12 13 14 15 16
642
FTUS42 KILM 260813 AAB
TAFILM
TAF AMD
KILM 260813Z 2608/2706 08009KT P6SM VCTS BKN020CB OVC060
     FM261500 09008KT P6SM SCT040 BKN100
     FM270200 06003KT P6SM SCT250=

USA.gov is the U.S. government's official web portal to all federal, state and local government web resources and services.